Wiarton Airport
CYVV : rendu visible

Aérodrome :











RETROUVEZ-NOUS SUR...

 
LOGIN :

S'inscrire | Disclaimer

   EN    FR    IT 

 









Légende :    VFR   VFR Marginal   IFR   IFR Intensif   IFR Très Intensif
Visi : 
Plafond : 
>= 8 km
>= 3000ft
5 à 8 km
1000 à 3000 ft
1500m à 5 km
500 à 1000 ft
800 à 1500m
200 à 500 ft
< 800m
< 200 ft
Symboles :   Orages  Brouillard  Fortes neiges  Fortes précipitations  Vent > 20 kt






- Altitude de l'aérodrome : 729 ft
- Code IATA : YVV


CYVV - Wiarton

DERNIER METAR :
  • 290900Z 09011KT 10SM -RA FEW006 BKN013 OVC070 05/04 A2967 RMK SF2SC4AC2 PRESFR SLP053

METARs EXPIRÉS :
  • 290800Z 10008KT 10SM -RA SCT012 OVC050 04/04 A2974 RMK SC3SC5 SLP077
  • 290746Z 10011G17KT 10SM -RA SCT013 OVC050 04/03 A2974 RMK SC3SC5 PRESFR SLP078
  • 290700Z 10016G23KT 15SM -RA OVC013 05/03 A2975 RMK SC8 SLP082
  • 290635Z 10013G21KT 15SM -RA BKN014 OVC050 05/03 A2976 RMK SC6SC2 SLP084

Prévision TAF périmée.



MET'MAP, la Météo Aéronautique d'un coup d'oeil ! - Copyright ORBIFLY Décembre 2007 - Disclaimer

ORBIFLY MET'MAP TEAM :

Programmation & Développement : Alexandra Zaïnal
Sur une idée originale de : Baudouin d'Aumeries
Assistance à la programmation : Marc-Olivier Méhu
Soutien technique & logistique : Manuel Goepfert

Contact : metmap@orbifly.com




SOURCES & CREDITS :

   NOAA       Earth
Advisory